createdAt,value
2022-10-14T00:01:21.606Z,27.23
2022-10-14T00:03:58.031Z,27.80
2022-10-14T00:06:31.479Z,26.95
2022-10-14T00:09:06.550Z,30.45
2022-10-14T00:11:36.671Z,27.98
2022-10-14T00:14:13.390Z,30.30
2022-10-14T00:16:45.725Z,29.83
2022-10-14T00:19:14.794Z,28.02
2022-10-14T00:21:45.381Z,30.70
2022-10-14T00:24:16.058Z,27.13
2022-10-14T00:26:43.911Z,24.75
2022-10-14T00:29:17.306Z,23.42
2022-10-14T00:31:45.188Z,24.70
2022-10-14T00:34:14.568Z,23.73
2022-10-14T00:36:43.423Z,28.38
2022-10-14T00:39:11.878Z,26.33
2022-10-14T00:41:40.105Z,26.63
2022-10-14T00:44:27.098Z,26.90
2022-10-14T00:46:55.988Z,30.00
2022-10-14T00:49:40.925Z,25.08
2022-10-14T00:52:19.254Z,26.77
2022-10-14T00:54:56.778Z,30.35
2022-10-14T00:57:26.362Z,26.42
2022-10-14T01:00:02.474Z,30.60
2022-10-14T01:02:30.759Z,28.95
2022-10-14T01:04:59.310Z,28.88
2022-10-14T01:07:47.213Z,28.30
2022-10-14T01:10:43.751Z,29.60
2022-10-14T01:13:48.017Z,25.27
2022-10-14T01:16:45.265Z,25.63
2022-10-14T01:19:59.091Z,26.80
2022-10-14T01:22:38.191Z,27.27
2022-10-14T01:25:34.407Z,26.88
2022-10-14T01:28:10.781Z,26.35
2022-10-14T01:30:50.499Z,25.77
2022-10-14T01:33:27.009Z,25.30
2022-10-14T01:36:12.705Z,24.23
2022-10-14T01:38:51.213Z,25.35
2022-10-14T01:41:25.873Z,25.05
2022-10-14T01:43:57.833Z,25.17
2022-10-14T01:46:27.501Z,26.88
2022-10-14T01:49:07.343Z,25.83
2022-10-14T01:51:49.783Z,26.13
2022-10-14T01:54:26.080Z,27.70
2022-10-14T01:56:58.590Z,28.15
2022-10-14T01:59:27.925Z,28.02
2022-10-14T02:01:55.242Z,27.00
2022-10-14T02:04:23.899Z,29.65
2022-10-14T02:07:10.601Z,29.48
2022-10-14T02:10:33.251Z,30.23
2022-10-14T02:13:37.063Z,29.58
2022-10-14T02:16:30.592Z,29.35
2022-10-14T02:19:25.693Z,27.02
2022-10-14T02:22:10.415Z,26.55
2022-10-14T02:24:48.573Z,27.50
2022-10-14T02:27:20.220Z,28.48
2022-10-14T02:29:49.514Z,30.95
2022-10-14T02:32:20.994Z,29.60
2022-10-14T02:34:53.400Z,26.48
2022-10-14T02:37:23.745Z,28.83
2022-10-14T02:40:17.901Z,25.92
2022-10-14T02:42:46.458Z,25.70
2022-10-14T02:45:15.806Z,28.90
2022-10-14T02:47:43.020Z,28.30
2022-10-14T02:50:11.028Z,28.65
2022-10-14T02:52:38.467Z,29.15
2022-10-14T02:55:06.140Z,29.25
2022-10-14T02:57:33.540Z,31.00
2022-10-14T03:00:00.937Z,31.80
2022-10-14T03:02:28.112Z,29.50
2022-10-14T03:04:55.248Z,34.80
2022-10-14T03:07:22.680Z,31.55
2022-10-14T03:09:50.047Z,31.10
2022-10-14T03:12:17.589Z,32.00
2022-10-14T03:14:44.765Z,29.45
2022-10-14T03:17:12.153Z,29.88
2022-10-14T03:19:39.339Z,26.50
2022-10-14T03:22:06.741Z,32.65
2022-10-14T03:24:34.009Z,28.25
2022-10-14T03:27:01.188Z,31.67
2022-10-14T03:29:29.066Z,32.80
2022-10-14T03:31:56.532Z,34.00
2022-10-14T03:34:23.775Z,33.65
2022-10-14T03:36:51.155Z,33.08
2022-10-14T03:39:18.443Z,33.97
2022-10-14T03:41:45.613Z,31.48
2022-10-14T03:44:13.281Z,30.75
2022-10-14T03:46:40.439Z,29.63
2022-10-14T03:49:07.862Z,31.15
2022-10-14T03:51:35.353Z,31.55
2022-10-14T03:54:02.556Z,30.25
2022-10-14T03:56:29.808Z,29.88
2022-10-14T03:58:57.212Z,32.97
2022-10-14T04:01:24.415Z,34.92
2022-10-14T04:03:52.093Z,32.55
2022-10-14T04:06:19.406Z,33.78
2022-10-14T04:08:46.598Z,31.25
2022-10-14T04:11:14.017Z,31.45
2022-10-14T04:13:41.160Z,29.75
2022-10-14T04:16:10.849Z,30.38
2022-10-14T04:18:38.438Z,31.80
2022-10-14T04:21:12.333Z,31.08
2022-10-14T04:23:39.876Z,30.95
2022-10-14T04:26:09.545Z,30.02
2022-10-14T04:28:37.863Z,31.35
2022-10-14T04:31:05.974Z,28.63
2022-10-14T04:33:35.001Z,29.55
2022-10-14T04:36:06.505Z,29.25
2022-10-14T04:38:34.281Z,30.90
2022-10-14T04:41:01.495Z,30.30
2022-10-14T04:43:28.694Z,29.85
2022-10-14T04:45:56.046Z,28.17
2022-10-14T04:48:23.561Z,27.77
2022-10-14T04:50:52.973Z,26.45
2022-10-14T04:53:22.453Z,27.75
2022-10-14T04:55:50.189Z,29.75
2022-10-14T04:58:17.826Z,28.85
2022-10-14T05:00:45.144Z,30.60
2022-10-14T05:03:12.354Z,30.98
2022-10-14T05:05:39.692Z,23.88
2022-10-14T05:08:07.165Z,24.60
2022-10-14T05:10:34.869Z,22.58
2022-10-14T05:13:02.558Z,25.08
2022-10-14T05:15:30.128Z,22.00
2022-10-14T05:17:57.545Z,25.33
2022-10-14T05:20:24.904Z,34.08
2022-10-14T05:22:52.124Z,36.20
2022-10-14T05:25:19.542Z,32.55
2022-10-14T05:27:46.973Z,28.98
2022-10-14T05:30:14.854Z,26.90
2022-10-14T05:32:42.019Z,32.25
2022-10-14T05:35:09.609Z,28.00
2022-10-14T05:37:37.148Z,32.83
2022-10-14T05:40:05.225Z,34.47
2022-10-14T05:42:32.681Z,31.63
2022-10-14T05:45:00.210Z,32.55
2022-10-14T05:47:27.541Z,32.72
2022-10-14T05:49:54.797Z,31.80
2022-10-14T05:52:22.597Z,29.98
2022-10-14T05:54:50.041Z,28.00
2022-10-14T05:57:17.441Z,24.48
2022-10-14T05:59:44.798Z,46.60
2022-10-14T06:02:12.422Z,43.58
2022-10-14T06:04:42.562Z,51.75
2022-10-14T06:07:10.502Z,34.28
2022-10-14T06:09:38.988Z,29.83
2022-10-14T06:12:06.820Z,27.63
2022-10-14T06:14:34.403Z,27.08
2022-10-14T06:17:01.646Z,29.10
2022-10-14T06:19:31.008Z,28.25
2022-10-14T06:21:58.979Z,25.92
2022-10-14T06:24:26.158Z,28.15
2022-10-14T06:26:53.456Z,28.23
2022-10-14T06:29:21.082Z,25.27
2022-10-14T06:31:48.291Z,26.38
2022-10-14T06:34:15.641Z,28.40
2022-10-14T06:36:43.090Z,27.00
2022-10-14T06:39:11.064Z,26.27
2022-10-14T06:41:38.424Z,24.05
2022-10-14T06:44:05.689Z,25.92
2022-10-14T06:46:32.919Z,28.75
2022-10-14T06:49:00.314Z,25.98
2022-10-14T06:51:27.524Z,24.20
2022-10-14T06:53:54.663Z,26.60
2022-10-14T06:56:22.022Z,24.10
2022-10-14T06:58:52.901Z,25.95
2022-10-14T07:01:20.251Z,27.70
2022-10-14T07:03:50.567Z,27.02
2022-10-14T07:06:19.998Z,25.00
2022-10-14T07:08:47.246Z,23.95
2022-10-14T07:11:14.660Z,24.77
2022-10-14T07:13:41.799Z,26.20
2022-10-14T07:16:09.010Z,23.83
2022-10-14T07:18:36.418Z,24.58
2022-10-14T07:21:05.494Z,24.60
2022-10-14T07:23:33.259Z,23.63
2022-10-14T07:26:01.387Z,23.90
2022-10-14T07:28:29.177Z,25.70
2022-10-14T07:31:11.265Z,24.20
2022-10-14T07:33:40.517Z,24.98
2022-10-14T07:36:19.933Z,26.05
2022-10-14T07:38:50.546Z,26.38
2022-10-14T07:41:22.869Z,26.65
2022-10-14T07:44:03.272Z,29.25
2022-10-14T07:46:33.096Z,26.58
2022-10-14T07:49:08.843Z,27.17
2022-10-14T07:51:37.150Z,28.65
2022-10-14T07:54:11.105Z,28.63
2022-10-14T07:56:41.906Z,27.95
2022-10-14T07:59:09.219Z,25.65
2022-10-14T08:01:37.368Z,25.92
2022-10-14T08:04:05.536Z,26.85
2022-10-14T08:06:33.230Z,24.80
2022-10-14T08:09:00.388Z,23.02
2022-10-14T08:11:29.682Z,24.83
2022-10-14T08:13:59.627Z,27.00
2022-10-14T08:16:30.566Z,27.00
2022-10-14T08:19:02.224Z,23.90
2022-10-14T08:21:29.452Z,24.52
2022-10-14T08:23:57.143Z,26.50
2022-10-14T08:26:35.051Z,29.25
2022-10-14T08:29:06.804Z,28.65
2022-10-14T08:31:34.547Z,24.58
2022-10-14T08:34:01.986Z,26.98
2022-10-14T08:36:29.647Z,27.67
2022-10-14T08:38:57.198Z,30.10
2022-10-14T08:41:55.386Z,28.42
2022-10-14T08:44:40.877Z,30.27
2022-10-14T08:47:15.711Z,29.83
2022-10-14T08:50:01.718Z,32.75
2022-10-14T08:52:41.980Z,30.73
2022-10-14T08:55:51.033Z,33.05
2022-10-14T08:58:51.400Z,33.83
2022-10-14T09:01:39.457Z,35.58
2022-10-14T09:04:12.304Z,32.65
2022-10-14T09:06:46.391Z,34.53
2022-10-14T09:09:38.224Z,33.17
2022-10-14T09:12:13.763Z,31.27
2022-10-14T09:14:54.541Z,32.80
2022-10-14T09:17:37.999Z,32.75
2022-10-14T09:20:25.664Z,31.42
2022-10-14T09:23:04.773Z,32.55
2022-10-14T09:25:37.416Z,30.25
2022-10-14T09:28:05.032Z,33.72
2022-10-14T09:30:40.597Z,31.35
2022-10-14T09:33:17.700Z,31.05
2022-10-14T09:35:45.652Z,28.02
2022-10-14T09:38:14.284Z,27.38
2022-10-14T09:40:49.607Z,25.23
2022-10-14T09:43:21.166Z,23.98
2022-10-14T09:46:00.549Z,22.80
2022-10-14T09:48:39.588Z,22.48
2022-10-14T09:51:44.962Z,24.52
2022-10-14T09:54:26.467Z,23.98
2022-10-14T09:57:08.052Z,23.67
2022-10-14T09:59:55.226Z,27.00
2022-10-14T10:02:32.872Z,24.02
2022-10-14T10:05:14.610Z,23.88
2022-10-14T10:07:41.842Z,22.77
2022-10-14T10:10:22.204Z,21.13
2022-10-14T10:12:49.701Z,22.08
2022-10-14T10:15:21.822Z,21.25
2022-10-14T10:17:50.592Z,20.15
2022-10-14T10:20:33.519Z,20.20
2022-10-14T10:23:19.658Z,22.33
2022-10-14T10:25:48.271Z,20.77
2022-10-14T10:28:32.938Z,20.35
2022-10-14T10:31:30.556Z,18.90
2022-10-14T10:34:03.679Z,17.90
2022-10-14T10:36:41.792Z,16.85
2022-10-14T10:39:59.052Z,16.58
2022-10-14T10:42:56.602Z,16.88
2022-10-14T10:46:14.168Z,17.10
2022-10-14T10:49:32.474Z,15.02
2022-10-14T10:52:21.993Z,17.00
2022-10-14T10:54:53.366Z,16.75
2022-10-14T10:58:10.286Z,14.95
2022-10-14T11:01:06.000Z,15.48
2022-10-14T11:03:45.228Z,15.65
2022-10-14T11:06:59.999Z,15.80
2022-10-14T11:10:39.454Z,14.75
2022-10-14T11:13:20.587Z,14.93
2022-10-14T11:16:05.136Z,15.05
2022-10-14T11:18:58.277Z,15.38
2022-10-14T11:21:45.127Z,15.65
2022-10-14T11:24:42.522Z,13.65
2022-10-14T11:27:21.009Z,16.70
2022-10-14T11:30:20.671Z,14.23
2022-10-14T11:33:26.134Z,16.95
2022-10-14T11:36:59.683Z,17.40
2022-10-14T11:40:18.866Z,19.65
2022-10-14T11:43:10.544Z,19.70
2022-10-14T11:45:52.646Z,19.98
2022-10-14T11:48:33.726Z,18.25
2022-10-14T11:51:26.530Z,18.63
2022-10-14T11:54:36.190Z,18.08
2022-10-14T11:57:28.846Z,18.20
2022-10-14T12:00:15.735Z,18.05
2022-10-14T12:02:59.770Z,16.83
2022-10-14T12:05:41.854Z,15.90
2022-10-14T12:08:23.302Z,15.15
2022-10-14T12:11:06.335Z,13.85
2022-10-14T12:13:47.774Z,14.95
2022-10-14T12:16:20.077Z,12.65
2022-10-14T12:18:56.912Z,15.70
2022-10-14T12:21:28.123Z,15.25
2022-10-14T12:24:04.978Z,16.23
2022-10-14T12:27:02.046Z,16.30
2022-10-14T12:29:36.123Z,15.90
2022-10-14T12:32:03.388Z,16.65
2022-10-14T12:34:37.926Z,16.77
2022-10-14T12:37:27.322Z,13.32
2022-10-14T12:40:03.620Z,14.13
2022-10-14T12:42:36.606Z,13.32
2022-10-14T12:45:21.678Z,14.35
2022-10-14T12:48:21.574Z,16.40
2022-10-14T12:50:53.301Z,18.58
2022-10-14T12:53:32.372Z,15.68
2022-10-14T12:56:04.305Z,15.73
2022-10-14T12:58:42.449Z,13.57
2022-10-14T13:01:24.243Z,13.15
2022-10-14T13:04:07.575Z,14.07
2022-10-14T13:06:42.490Z,13.20
2022-10-14T13:09:13.014Z,14.60
2022-10-14T13:11:51.555Z,12.60
2022-10-14T13:14:31.282Z,15.25
2022-10-14T13:17:01.954Z,15.35
2022-10-14T13:19:35.429Z,17.20
2022-10-14T13:22:28.530Z,14.25
2022-10-14T13:25:19.723Z,14.65
2022-10-14T13:28:16.268Z,15.23
2022-10-14T13:30:51.084Z,13.70
2022-10-14T13:33:31.206Z,14.32
2022-10-14T13:36:21.766Z,14.02
2022-10-14T13:39:00.772Z,13.15
2022-10-14T13:41:31.543Z,13.15
2022-10-14T13:44:02.245Z,12.07
2022-10-14T13:46:39.331Z,13.25
2022-10-14T13:52:12.761Z,12.90
2022-10-14T13:54:40.032Z,16.08
2022-10-14T13:57:47.917Z,16.45
2022-10-14T14:00:40.665Z,15.00
2022-10-14T14:03:38.236Z,16.08
2022-10-14T14:06:16.575Z,14.55
2022-10-14T14:08:56.578Z,15.60
2022-10-14T14:11:29.828Z,15.20
2022-10-14T14:14:35.920Z,16.52
2022-10-14T14:17:06.574Z,16.23
2022-10-14T14:19:42.386Z,17.27
2022-10-14T14:22:24.583Z,15.90
2022-10-14T14:24:53.438Z,15.65
2022-10-14T14:27:26.686Z,15.82
2022-10-14T14:29:55.434Z,15.27
2022-10-14T14:32:31.246Z,15.93
2022-10-14T14:35:01.066Z,15.27
2022-10-14T14:40:30.037Z,16.20
2022-10-14T14:43:03.865Z,15.82
2022-10-14T14:45:51.880Z,15.10
2022-10-14T14:48:20.557Z,15.13
2022-10-14T14:50:49.042Z,14.52
2022-10-14T14:53:23.988Z,15.50
2022-10-14T14:55:56.965Z,15.68
2022-10-14T14:58:39.379Z,17.08
2022-10-14T15:01:07.958Z,17.25
2022-10-14T15:04:13.341Z,17.20
2022-10-14T15:07:21.235Z,17.27
2022-10-14T15:10:01.947Z,16.92
2022-10-14T15:12:41.945Z,17.98
2022-10-14T15:15:33.483Z,18.88
2022-10-14T15:18:28.762Z,18.83
2022-10-14T15:21:19.553Z,19.33
2022-10-14T15:23:49.936Z,17.50
2022-10-14T15:26:27.796Z,19.55
2022-10-14T15:29:17.152Z,17.58
2022-10-14T15:32:06.429Z,17.95
2022-10-14T15:34:35.738Z,16.88
2022-10-14T15:37:02.981Z,18.45
2022-10-14T15:39:31.095Z,19.00
2022-10-14T15:41:58.559Z,19.08
2022-10-14T15:44:25.995Z,19.58
2022-10-14T15:47:11.639Z,20.58
2022-10-14T15:49:42.546Z,18.50
2022-10-14T15:52:17.793Z,20.00
2022-10-14T15:54:47.704Z,19.98
2022-10-14T15:57:16.894Z,21.25
2022-10-14T15:59:44.409Z,21.10
2022-10-14T16:02:31.060Z,21.58
2022-10-14T16:07:46.220Z,21.90
2022-10-14T16:10:17.933Z,22.48
2022-10-14T16:12:45.820Z,22.25
2022-10-14T16:15:31.773Z,23.27
2022-10-14T16:17:59.244Z,22.58
2022-10-14T16:20:27.596Z,22.75
2022-10-14T16:22:54.916Z,23.05
2022-10-14T16:25:41.051Z,23.70
2022-10-14T16:28:10.143Z,24.40
2022-10-14T16:30:51.154Z,24.95
2022-10-14T16:33:24.071Z,25.85
2022-10-14T16:35:55.501Z,24.75
2022-10-14T16:38:24.342Z,23.60
2022-10-14T16:41:00.963Z,22.40
2022-10-14T16:43:29.275Z,22.88
2022-10-14T16:46:03.693Z,22.63
2022-10-14T16:48:34.294Z,21.88
2022-10-14T16:51:02.136Z,22.58
2022-10-14T16:53:41.085Z,22.02
2022-10-14T16:56:39.207Z,23.33
2022-10-14T16:59:08.273Z,23.95
2022-10-14T17:01:36.037Z,24.95
2022-10-14T17:04:03.407Z,24.35
2022-10-14T17:06:30.803Z,22.95
2022-10-14T17:08:58.938Z,23.73
2022-10-14T17:11:28.249Z,25.75
2022-10-14T17:14:00.577Z,23.30
2022-10-14T17:16:30.184Z,22.77
2022-10-14T17:18:59.356Z,23.38
2022-10-14T17:21:29.616Z,24.00
2022-10-14T17:24:02.137Z,21.85
2022-10-14T17:26:32.914Z,23.10
2022-10-14T17:29:00.873Z,23.65
2022-10-14T17:31:29.533Z,22.25
2022-10-14T17:33:59.531Z,23.95
2022-10-14T17:36:30.849Z,24.50
2022-10-14T17:38:59.978Z,25.25
2022-10-14T17:41:30.843Z,24.75
2022-10-14T17:44:01.473Z,23.38
2022-10-14T17:46:32.251Z,25.90
2022-10-14T17:49:03.969Z,24.42
2022-10-14T17:51:32.542Z,24.60
2022-10-14T17:54:03.648Z,24.88
2022-10-14T17:56:34.172Z,24.52
2022-10-14T17:59:06.197Z,23.00
2022-10-14T18:02:00.845Z,23.20
2022-10-14T18:04:22.152Z,24.20
2022-10-14T18:06:49.605Z,23.70
2022-10-14T18:09:16.944Z,24.00
2022-10-14T18:14:33.571Z,23.75
2022-10-14T18:17:00.974Z,23.80
2022-10-14T18:19:28.389Z,22.65
2022-10-14T18:21:55.754Z,22.70
2022-10-14T18:24:23.879Z,23.65
2022-10-14T18:26:52.183Z,22.42
2022-10-14T18:29:19.580Z,24.33
2022-10-14T18:31:53.465Z,23.63
2022-10-14T18:34:22.525Z,23.65
2022-10-14T18:36:50.028Z,24.65
2022-10-14T18:39:17.274Z,24.98
2022-10-14T18:41:44.901Z,23.95
2022-10-14T18:44:12.614Z,25.42
2022-10-14T18:46:40.378Z,24.50
2022-10-14T18:49:11.798Z,24.30
2022-10-14T18:51:41.100Z,23.45
2022-10-14T18:54:21.391Z,25.45
2022-10-14T18:56:48.869Z,25.13
2022-10-14T18:59:21.191Z,26.33
2022-10-14T19:01:53.227Z,25.13
2022-10-14T19:04:25.622Z,25.13
2022-10-14T19:06:53.995Z,25.75
2022-10-14T19:09:28.778Z,26.38
2022-10-14T19:11:58.975Z,27.27
2022-10-14T19:14:28.832Z,28.02
2022-10-14T19:16:56.328Z,28.38
2022-10-14T19:19:23.633Z,27.90
2022-10-14T19:21:54.498Z,28.17
2022-10-14T19:24:21.987Z,27.38
2022-10-14T19:26:50.253Z,27.15
2022-10-14T19:29:17.968Z,29.25
2022-10-14T19:31:45.437Z,27.88
2022-10-14T19:34:16.162Z,27.25
2022-10-14T19:36:44.911Z,29.33
2022-10-14T19:39:16.213Z,28.45
2022-10-14T19:41:45.157Z,29.27
2022-10-14T19:44:15.290Z,28.33
2022-10-14T19:46:44.752Z,30.25
2022-10-14T19:49:16.261Z,29.20
2022-10-14T19:51:44.885Z,31.60
2022-10-14T19:54:13.745Z,30.83
2022-10-14T19:56:41.649Z,30.23
2022-10-14T19:59:10.750Z,32.22
2022-10-14T20:01:38.103Z,30.13
2022-10-14T20:04:11.641Z,29.58
2022-10-14T20:06:40.247Z,30.67
2022-10-14T20:09:08.789Z,28.42
2022-10-14T20:11:36.346Z,30.00
2022-10-14T20:14:03.907Z,32.03
2022-10-14T20:16:31.166Z,31.00
2022-10-14T20:18:58.529Z,32.55
2022-10-14T20:21:26.527Z,32.35
2022-10-14T20:23:53.718Z,32.30
2022-10-14T20:26:21.982Z,30.90
2022-10-14T20:28:50.093Z,31.50
2022-10-14T20:31:22.011Z,32.88
2022-10-14T20:33:49.691Z,32.25
2022-10-14T20:36:20.828Z,30.40
2022-10-14T20:38:49.747Z,29.55
2022-10-14T20:41:27.072Z,27.58
2022-10-14T20:43:56.578Z,28.30
2022-10-14T20:46:25.219Z,27.85
2022-10-14T20:48:59.018Z,27.20
2022-10-14T20:51:27.350Z,28.45
2022-10-14T20:54:02.759Z,26.30
2022-10-14T20:56:34.156Z,28.13
2022-10-14T20:59:05.605Z,28.85
2022-10-14T21:01:36.285Z,29.10
2022-10-14T21:04:07.779Z,28.00
2022-10-14T21:06:36.158Z,28.52
2022-10-14T21:09:03.808Z,29.05
2022-10-14T21:11:31.398Z,27.33
2022-10-14T21:14:00.631Z,27.98
2022-10-14T21:16:37.030Z,27.90
2022-10-14T21:19:09.005Z,28.17
2022-10-14T21:21:43.107Z,28.30
2022-10-14T21:24:17.909Z,27.42
2022-10-14T21:26:50.674Z,28.45
2022-10-14T21:29:22.538Z,26.50
2022-10-14T21:31:50.419Z,28.17
2022-10-14T21:34:17.782Z,27.17
2022-10-14T21:36:45.557Z,29.73
2022-10-14T21:39:18.569Z,27.10
2022-10-14T21:41:46.678Z,26.77
2022-10-14T21:44:20.832Z,27.52
2022-10-14T21:46:49.269Z,26.23
2022-10-14T21:49:16.914Z,26.17
2022-10-14T21:51:44.114Z,26.67
2022-10-14T21:54:12.789Z,27.17
2022-10-14T21:56:40.057Z,27.55
2022-10-14T21:59:07.846Z,26.98
2022-10-14T22:01:35.350Z,27.60
2022-10-14T22:04:06.319Z,27.85
2022-10-14T22:06:35.957Z,28.08
2022-10-14T22:09:07.650Z,25.52
2022-10-14T22:11:39.732Z,28.13
2022-10-14T22:14:12.565Z,27.80
2022-10-14T22:16:39.906Z,30.83
2022-10-14T22:19:07.970Z,29.73
2022-10-14T22:21:38.290Z,28.20
2022-10-14T22:26:36.134Z,26.33
2022-10-14T22:29:11.725Z,31.58
2022-10-14T22:31:39.408Z,30.13
2022-10-14T22:34:10.119Z,33.88
2022-10-14T22:36:37.610Z,30.65
2022-10-14T22:39:10.888Z,31.27
2022-10-14T22:41:38.696Z,32.00
2022-10-14T22:44:06.731Z,29.00
2022-10-14T22:46:37.340Z,31.58
2022-10-14T22:49:05.348Z,31.52
2022-10-14T22:51:40.620Z,33.45
2022-10-14T22:54:09.478Z,33.35
2022-10-14T22:56:37.793Z,32.63
2022-10-14T22:59:11.578Z,33.35
2022-10-14T23:01:42.466Z,33.70
2022-10-14T23:04:11.427Z,35.97
2022-10-14T23:06:39.608Z,36.22
2022-10-14T23:09:07.048Z,34.40
2022-10-14T23:11:34.304Z,31.80
2022-10-14T23:14:04.590Z,29.48
2022-10-14T23:16:35.742Z,31.65
2022-10-14T23:19:03.709Z,32.28
2022-10-14T23:21:34.938Z,30.40
2022-10-14T23:24:07.106Z,30.25
2022-10-14T23:26:36.405Z,28.10
2022-10-14T23:29:11.385Z,28.20
2022-10-14T23:31:40.244Z,29.13
2022-10-14T23:34:14.146Z,27.30
2022-10-14T23:36:42.094Z,27.02
2022-10-14T23:39:09.912Z,25.58
2022-10-14T23:41:37.305Z,29.35
2022-10-14T23:44:04.526Z,28.75
2022-10-14T23:46:31.947Z,27.80
2022-10-14T23:49:07.285Z,29.85
2022-10-14T23:51:42.287Z,27.80
2022-10-14T23:54:09.519Z,28.20
2022-10-14T23:56:36.764Z,27.33
2022-10-14T23:59:04.192Z,26.92
